createdAt,value
2023-04-22T00:01:10.923Z,18.60
2023-04-22T00:03:46.006Z,19.20
2023-04-22T00:06:20.855Z,19.00
2023-04-22T00:09:12.923Z,18.50
2023-04-22T00:11:56.072Z,18.50
2023-04-22T00:14:38.439Z,19.00
2023-04-22T00:17:30.382Z,18.50
2023-04-22T00:20:23.397Z,18.30
2023-04-22T00:23:00.581Z,19.40
2023-04-22T00:25:52.571Z,19.10
2023-04-22T00:28:35.449Z,18.60
2023-04-22T00:31:27.494Z,18.30
2023-04-22T00:34:19.709Z,17.60
2023-04-22T00:37:12.112Z,20.00
2023-04-22T00:40:04.589Z,19.00
2023-04-22T00:42:58.028Z,20.50
2023-04-22T00:45:50.219Z,18.50
2023-04-22T00:48:42.337Z,19.10
2023-04-22T00:51:19.166Z,19.00
2023-04-22T00:54:11.106Z,19.20
2023-04-22T00:57:03.893Z,19.10
2023-04-22T00:59:56.348Z,19.50
2023-04-22T01:02:33.906Z,18.80
2023-04-22T01:05:26.217Z,19.50
2023-04-22T01:08:18.506Z,19.00
2023-04-22T01:11:10.503Z,20.40
2023-04-22T01:13:42.421Z,22.20
2023-04-22T01:16:35.857Z,22.70
2023-04-22T01:19:13.248Z,21.80
2023-04-22T01:22:07.508Z,20.00
2023-04-22T01:24:42.454Z,18.60
2023-04-22T01:27:34.593Z,18.50
2023-04-22T01:30:27.036Z,18.30
2023-04-22T01:33:19.762Z,17.50
2023-04-22T01:36:12.999Z,18.20
2023-04-22T01:39:13.995Z,18.10
2023-04-22T01:42:06.627Z,17.70
2023-04-22T01:44:58.881Z,16.80
2023-04-22T01:47:50.931Z,16.50
2023-04-22T01:50:43.025Z,16.50
2023-04-22T01:53:19.866Z,17.70
2023-04-22T01:56:11.947Z,17.90
2023-04-22T01:58:49.210Z,18.80
2023-04-22T02:01:41.246Z,17.30
2023-04-22T02:04:33.389Z,17.90
2023-04-22T02:07:25.600Z,17.90
2023-04-22T02:10:17.576Z,18.00
2023-04-22T02:13:09.513Z,17.50
2023-04-22T02:16:01.555Z,17.80
2023-04-22T02:18:42.350Z,17.60
2023-04-22T02:21:34.595Z,16.00
2023-04-22T02:24:26.868Z,16.40
2023-04-22T02:27:18.873Z,17.50
2023-04-22T02:30:12.048Z,16.60
2023-04-22T02:33:04.038Z,16.40
2023-04-22T02:35:56.261Z,16.70
2023-04-22T02:38:48.502Z,16.00
2023-04-22T02:41:40.473Z,17.20
2023-04-22T02:44:32.506Z,16.60
2023-04-22T02:47:24.473Z,16.40
2023-04-22T02:50:16.623Z,18.30
2023-04-22T02:53:08.873Z,18.60
2023-04-22T02:55:44.799Z,17.50
2023-04-22T02:58:36.910Z,16.40
2023-04-22T03:01:28.992Z,16.90
2023-04-22T03:04:21.958Z,15.90
2023-04-22T03:06:57.512Z,17.40
2023-04-22T03:09:49.535Z,17.80
2023-04-22T03:12:41.922Z,16.70
2023-04-22T03:15:33.915Z,16.90
2023-04-22T03:18:25.942Z,16.00
2023-04-22T03:21:00.808Z,15.30
2023-04-22T03:23:52.837Z,13.90
2023-04-22T03:26:44.825Z,14.90
2023-04-22T03:29:37.037Z,15.40
2023-04-22T03:32:29.098Z,17.80
2023-04-22T03:35:21.355Z,18.00
2023-04-22T03:38:13.217Z,18.00
2023-04-22T03:40:51.570Z,18.90
2023-04-22T03:43:43.666Z,20.10
2023-04-22T03:46:35.622Z,18.40
2023-04-22T03:49:17.784Z,19.00
2023-04-22T03:52:09.738Z,19.50
2023-04-22T03:55:01.714Z,19.00
2023-04-22T03:57:42.489Z,19.50
2023-04-22T04:00:34.458Z,19.50
2023-04-22T04:03:27.988Z,18.10
2023-04-22T04:06:22.324Z,18.30
2023-04-22T04:09:14.281Z,18.80
2023-04-22T04:12:06.469Z,17.60
2023-04-22T04:14:58.460Z,16.70
2023-04-22T04:17:50.551Z,19.20
2023-04-22T04:20:42.597Z,19.00
2023-04-22T04:23:34.667Z,18.40
2023-04-22T04:26:27.532Z,19.20
2023-04-22T04:29:21.538Z,19.30
2023-04-22T04:32:14.194Z,20.60
2023-04-22T04:35:07.223Z,18.90
2023-04-22T04:37:59.259Z,20.80
2023-04-22T04:40:51.633Z,22.40
2023-04-22T04:43:46.389Z,20.60
2023-04-22T04:46:38.904Z,20.80
2023-04-22T04:49:31.547Z,20.10
2023-04-22T04:52:23.534Z,21.20
2023-04-22T04:55:15.545Z,23.10
2023-04-22T04:58:07.536Z,20.20
2023-04-22T05:00:59.513Z,20.70
2023-04-22T05:03:51.731Z,21.20
2023-04-22T05:06:43.857Z,18.80
2023-04-22T05:09:37.786Z,18.60
2023-04-22T05:12:29.954Z,18.80
2023-04-22T05:15:22.045Z,19.40
2023-04-22T05:18:13.973Z,20.00
2023-04-22T05:21:05.921Z,19.10
2023-04-22T05:23:57.913Z,18.20
2023-04-22T05:26:49.991Z,17.80
2023-04-22T05:29:42.257Z,17.30
2023-04-22T05:32:34.634Z,17.70
2023-04-22T05:35:26.711Z,17.50
2023-04-22T05:38:18.769Z,17.50
2023-04-22T05:41:10.746Z,18.30
2023-04-22T05:44:02.779Z,17.80
2023-04-22T05:46:54.729Z,18.90
2023-04-22T05:49:46.800Z,19.20
2023-04-22T05:52:28.986Z,19.50
2023-04-22T05:55:21.085Z,19.80
2023-04-22T05:58:13.010Z,20.90
2023-04-22T06:01:04.996Z,20.80
2023-04-22T06:03:57.403Z,22.70
2023-04-22T06:06:49.921Z,23.50
2023-04-22T06:09:42.249Z,24.20
2023-04-22T06:12:19.743Z,23.90
2023-04-22T06:15:12.995Z,25.30
2023-04-22T06:18:05.128Z,23.40
2023-04-22T06:20:57.107Z,24.10
2023-04-22T06:23:49.048Z,24.70
2023-04-22T06:26:41.104Z,25.60
2023-04-22T06:29:33.101Z,24.10
2023-04-22T06:32:25.091Z,23.20
2023-04-22T06:35:17.227Z,23.10
2023-04-22T06:38:09.212Z,17.20
2023-04-22T06:41:01.276Z,14.50
2023-04-22T06:43:53.237Z,13.50
2023-04-22T06:46:45.955Z,14.50
2023-04-22T06:49:39.566Z,13.50
2023-04-22T06:52:31.928Z,13.00
2023-04-22T06:55:23.995Z,14.70
2023-04-22T06:58:15.922Z,13.10
2023-04-22T07:01:07.914Z,11.20
2023-04-22T07:03:42.748Z,14.00
2023-04-22T07:06:34.834Z,13.60
2023-04-22T07:09:27.377Z,12.70
2023-04-22T07:12:19.494Z,13.30
2023-04-22T07:15:12.360Z,12.90
2023-04-22T07:18:04.435Z,12.00
2023-04-22T07:20:56.478Z,13.80
2023-04-22T07:23:48.651Z,13.00
2023-04-22T07:26:41.110Z,13.80
2023-04-22T07:29:33.081Z,12.30
2023-04-22T07:32:25.305Z,13.20
2023-04-22T07:35:18.126Z,12.30
2023-04-22T07:37:55.398Z,11.40
2023-04-22T07:40:47.381Z,10.30
2023-04-22T07:43:39.376Z,8.80
2023-04-22T07:46:31.440Z,8.60
2023-04-22T07:49:24.065Z,8.10
2023-04-22T07:52:16.082Z,6.70
2023-04-22T07:55:09.743Z,5.70
2023-04-22T07:58:06.188Z,5.80
2023-04-22T08:00:58.325Z,6.40
2023-04-22T08:03:50.592Z,6.40
2023-04-22T08:06:42.910Z,6.70
2023-04-22T08:09:34.949Z,6.20
2023-04-22T08:12:26.993Z,7.00
2023-04-22T08:15:19.374Z,7.50
2023-04-22T08:18:11.473Z,6.60
2023-04-22T08:21:03.786Z,6.40
2023-04-22T08:23:53.708Z,6.80
2023-04-22T08:26:45.818Z,6.70
2023-04-22T08:29:38.640Z,6.80
2023-04-22T08:32:31.055Z,7.70
2023-04-22T08:35:23.346Z,9.50
2023-04-22T08:38:15.642Z,7.90
2023-04-22T08:41:08.507Z,6.60
2023-04-22T08:44:01.603Z,6.30
2023-04-22T08:46:54.601Z,7.00
2023-04-22T08:49:47.426Z,5.50
2023-04-22T08:52:40.070Z,5.40
2023-04-22T08:55:32.866Z,6.30
2023-04-22T08:58:25.286Z,5.50
2023-04-22T09:01:18.206Z,4.90
2023-04-22T09:04:12.161Z,5.30
2023-04-22T09:09:55.719Z,4.30
2023-04-22T09:12:49.635Z,4.30
2023-04-22T09:18:32.056Z,4.70
2023-04-22T09:21:28.698Z,7.90
2023-04-22T09:24:21.632Z,4.30
2023-04-22T09:27:13.633Z,4.00
2023-04-22T09:30:11.579Z,3.10
2023-04-22T09:33:05.629Z,3.20
2023-04-22T09:35:58.636Z,3.00
2023-04-22T09:38:57.653Z,3.70
2023-04-22T09:42:11.179Z,3.10
2023-04-22T09:45:03.242Z,3.30
2023-04-22T09:47:55.961Z,3.30
2023-04-22T09:50:50.638Z,3.10
2023-04-22T09:53:42.699Z,3.60
2023-04-22T09:56:54.502Z,3.10
2023-04-22T09:59:46.500Z,4.00
2023-04-22T10:02:38.609Z,3.20
2023-04-22T10:05:30.960Z,3.10
2023-04-22T10:08:22.906Z,3.20
2023-04-22T10:11:15.110Z,3.30
2023-04-22T10:14:07.140Z,3.00
2023-04-22T10:17:03.398Z,3.60
2023-04-22T10:19:56.422Z,3.10
2023-04-22T10:22:49.235Z,3.30
2023-04-22T10:25:42.860Z,3.60
2023-04-22T10:28:34.924Z,3.90
2023-04-22T10:31:27.867Z,3.40
2023-04-22T10:34:20.719Z,3.60
2023-04-22T10:37:14.025Z,3.90
2023-04-22T10:40:16.482Z,3.70
2023-04-22T10:43:08.524Z,3.60
2023-04-22T10:46:00.566Z,3.50
2023-04-22T10:48:53.646Z,3.60
2023-04-22T10:51:47.341Z,3.40
2023-04-22T10:55:02.948Z,4.30
2023-04-22T10:57:55.482Z,3.50
2023-04-22T11:01:08.494Z,4.10
2023-04-22T11:04:23.206Z,3.60
2023-04-22T11:07:34.839Z,3.70
2023-04-22T11:10:43.069Z,3.70
2023-04-22T11:13:36.356Z,4.50
2023-04-22T11:16:28.460Z,3.80
2023-04-22T11:19:20.497Z,4.00
2023-04-22T11:22:13.738Z,3.80
2023-04-22T11:25:06.841Z,3.90
2023-04-22T11:27:59.661Z,3.90
2023-04-22T11:30:52.235Z,3.90
2023-04-22T11:33:44.242Z,3.50
2023-04-22T11:36:36.334Z,5.60
2023-04-22T11:39:46.514Z,4.10
2023-04-22T11:42:42.394Z,3.40
2023-04-22T11:45:36.075Z,3.20
2023-04-22T11:48:28.213Z,3.30
2023-04-22T11:51:20.243Z,3.30
2023-04-22T11:54:12.202Z,3.10
2023-04-22T11:57:08.223Z,3.00
2023-04-22T12:00:03.323Z,3.60
2023-04-22T12:02:38.371Z,3.70
2023-04-22T12:05:40.722Z,3.00
2023-04-22T12:08:36.552Z,3.10
2023-04-22T12:11:30.727Z,4.10
2023-04-22T12:17:13.172Z,3.60
2023-04-22T12:20:07.916Z,3.30
2023-04-22T12:23:00.212Z,3.00
2023-04-22T12:25:52.172Z,3.30
2023-04-22T12:28:45.467Z,2.90
2023-04-22T12:31:38.714Z,3.30
2023-04-22T12:34:30.819Z,3.40
2023-04-22T12:37:22.889Z,3.50
2023-04-22T12:40:15.216Z,3.30
2023-04-22T12:43:07.969Z,3.50
2023-04-22T12:46:00.068Z,3.00
2023-04-22T12:48:52.219Z,3.10
2023-04-22T12:51:44.327Z,3.10
2023-04-22T12:54:36.309Z,2.90
2023-04-22T12:57:28.455Z,3.10
2023-04-22T13:00:21.067Z,3.40
2023-04-22T13:03:13.099Z,4.00
2023-04-22T13:06:05.202Z,3.70
2023-04-22T13:08:57.174Z,3.60
2023-04-22T13:11:49.390Z,4.10
2023-04-22T13:14:41.449Z,3.50
2023-04-22T13:17:34.009Z,3.50
2023-04-22T13:20:25.933Z,3.70
2023-04-22T13:23:19.784Z,3.10
2023-04-22T13:26:11.829Z,4.30
2023-04-22T13:29:04.074Z,3.60
2023-04-22T13:31:56.173Z,3.40
2023-04-22T13:34:48.859Z,3.30
2023-04-22T13:37:40.836Z,3.20
2023-04-22T13:40:33.026Z,3.50
2023-04-22T13:43:25.104Z,3.30
2023-04-22T13:46:17.213Z,4.70
2023-04-22T13:49:09.611Z,3.20
2023-04-22T13:52:01.686Z,4.00
2023-04-22T13:54:54.363Z,3.80
2023-04-22T13:57:46.481Z,4.70
2023-04-22T14:00:38.668Z,4.60
2023-04-22T14:03:31.313Z,4.30
2023-04-22T14:06:23.878Z,5.30
2023-04-22T14:09:17.837Z,3.70
2023-04-22T14:12:13.150Z,3.50
2023-04-22T14:15:06.440Z,3.80
2023-04-22T14:17:58.477Z,3.30
2023-04-22T14:20:50.950Z,2.70
2023-04-22T14:23:25.356Z,3.20
2023-04-22T14:26:17.355Z,3.20
2023-04-22T14:29:09.475Z,3.60
2023-04-22T14:32:01.583Z,4.10
2023-04-22T14:34:53.637Z,3.50
2023-04-22T14:37:45.686Z,3.20
2023-04-22T14:40:38.206Z,3.50
2023-04-22T14:43:32.041Z,3.30
2023-04-22T14:46:25.274Z,3.40
2023-04-22T14:49:17.330Z,3.60
2023-04-22T14:52:09.934Z,3.20
2023-04-22T14:55:11.909Z,3.30
2023-04-22T14:58:11.954Z,3.10
2023-04-22T15:01:05.229Z,3.40
2023-04-22T15:03:59.038Z,2.90
2023-04-22T15:06:51.251Z,2.80
2023-04-22T15:09:43.486Z,2.90
2023-04-22T15:12:35.658Z,2.80
2023-04-22T15:15:27.674Z,3.40
2023-04-22T15:18:19.807Z,3.30
2023-04-22T15:21:11.795Z,3.20
2023-04-22T15:24:03.836Z,3.10
2023-04-22T15:26:56.801Z,2.90
2023-04-22T15:29:48.860Z,2.90
2023-04-22T15:32:41.004Z,2.40
2023-04-22T15:35:33.231Z,2.60
2023-04-22T15:38:25.281Z,2.70
2023-04-22T15:41:17.318Z,2.80
2023-04-22T15:44:11.711Z,3.20
2023-04-22T15:47:05.106Z,3.40
2023-04-22T15:49:57.813Z,3.00
2023-04-22T15:52:50.236Z,3.20
2023-04-22T15:55:42.299Z,3.10
2023-04-22T15:58:34.724Z,3.10
2023-04-22T16:01:26.777Z,3.10
2023-04-22T16:04:19.649Z,2.80
2023-04-22T16:07:11.856Z,3.30
2023-04-22T16:10:04.210Z,3.00
2023-04-22T16:12:56.190Z,3.20
2023-04-22T16:15:48.312Z,2.70
2023-04-22T16:18:42.793Z,2.50
2023-04-22T16:21:36.194Z,2.60
2023-04-22T16:24:28.130Z,2.30
2023-04-22T16:27:20.160Z,2.90
2023-04-22T16:30:16.110Z,3.10
2023-04-22T16:33:08.393Z,3.20
2023-04-22T16:36:00.513Z,2.70
2023-04-22T16:38:52.475Z,3.00
2023-04-22T16:41:44.478Z,2.50
2023-04-22T16:44:19.045Z,2.60
2023-04-22T16:47:11.131Z,2.50
2023-04-22T16:50:03.715Z,2.60
2023-04-22T16:52:55.764Z,2.40
2023-04-22T16:55:47.738Z,2.80
2023-04-22T16:58:39.747Z,2.70
2023-04-22T17:01:31.847Z,2.70
2023-04-22T17:04:23.994Z,2.90
2023-04-22T17:07:16.328Z,3.60
2023-04-22T17:10:10.066Z,3.90
2023-04-22T17:13:02.993Z,4.00
2023-04-22T17:15:55.051Z,4.30
2023-04-22T17:18:47.869Z,4.10
2023-04-22T17:21:39.992Z,4.70
2023-04-22T17:24:32.009Z,3.80
2023-04-22T17:27:24.360Z,4.30
2023-04-22T17:30:16.930Z,4.70
2023-04-22T17:33:08.973Z,4.50
2023-04-22T17:36:01.004Z,5.20
2023-04-22T17:38:52.982Z,5.80
2023-04-22T17:41:45.105Z,6.20
2023-04-22T17:44:37.186Z,5.60
2023-04-22T17:47:29.648Z,5.60
2023-04-22T17:50:23.292Z,6.40
2023-04-22T17:53:15.333Z,7.20
2023-04-22T17:56:07.473Z,6.70
2023-04-22T17:58:59.913Z,6.80
2023-04-22T18:01:52.483Z,5.00
2023-04-22T18:04:44.488Z,6.30
2023-04-22T18:07:36.737Z,6.70
2023-04-22T18:10:28.954Z,8.70
2023-04-22T18:13:20.938Z,7.40
2023-04-22T18:16:12.928Z,7.40
2023-04-22T18:19:06.748Z,5.10
2023-04-22T18:22:00.469Z,6.70
2023-04-22T18:24:52.873Z,6.80
2023-04-22T18:27:45.436Z,7.20
2023-04-22T18:30:37.625Z,7.10
2023-04-22T18:33:29.755Z,7.70
2023-04-22T18:36:22.412Z,7.80
2023-04-22T18:39:14.401Z,7.20
2023-04-22T18:42:06.682Z,7.50
2023-04-22T18:44:58.683Z,7.20
2023-04-22T18:47:50.741Z,6.90
2023-04-22T18:50:42.911Z,7.60
2023-04-22T18:53:35.374Z,6.70
2023-04-22T18:56:27.442Z,7.30
2023-04-22T18:59:19.590Z,7.20
2023-04-22T19:02:14.125Z,7.00
2023-04-22T19:05:06.914Z,6.90
2023-04-22T19:07:44.372Z,7.60
2023-04-22T19:10:37.332Z,7.80
2023-04-22T19:13:30.282Z,7.60
2023-04-22T19:16:24.951Z,7.70
2023-04-22T19:19:18.414Z,8.60
2023-04-22T19:22:10.555Z,8.30
2023-04-22T19:25:03.471Z,8.50
2023-04-22T19:27:55.474Z,8.60
2023-04-22T19:30:47.597Z,8.70
2023-04-22T19:33:39.558Z,9.00
2023-04-22T19:36:31.695Z,9.00
2023-04-22T19:39:23.785Z,8.70
2023-04-22T19:42:03.226Z,9.20
2023-04-22T19:47:46.457Z,9.00
2023-04-22T19:50:39.284Z,8.90
2023-04-22T19:53:31.784Z,9.30
2023-04-22T19:56:09.456Z,9.20
2023-04-22T19:59:01.721Z,9.50
2023-04-22T20:01:54.485Z,9.60
2023-04-22T20:04:47.215Z,10.90
2023-04-22T20:07:41.240Z,11.80
2023-04-22T20:10:34.749Z,12.60
2023-04-22T20:13:27.770Z,13.20
2023-04-22T20:16:21.771Z,13.20
2023-04-22T20:19:17.141Z,13.50
2023-04-22T20:22:13.022Z,13.50
2023-04-22T20:25:08.532Z,13.90
2023-04-22T20:28:01.285Z,14.10
2023-04-22T20:30:53.743Z,14.40
2023-04-22T20:33:36.141Z,14.60
2023-04-22T20:36:20.132Z,14.60
2023-04-22T20:39:15.469Z,13.30
2023-04-22T20:42:08.888Z,14.10
2023-04-22T20:45:01.336Z,13.60
2023-04-22T20:47:53.594Z,14.00
2023-04-22T20:50:46.168Z,12.80
2023-04-22T20:53:38.185Z,12.70
2023-04-22T20:56:30.143Z,12.90
2023-04-22T20:59:22.137Z,12.10
2023-04-22T21:02:15.688Z,11.80
2023-04-22T21:05:11.134Z,11.00
2023-04-22T21:08:05.125Z,11.00
2023-04-22T21:10:57.775Z,10.10
2023-04-22T21:13:51.336Z,11.80
2023-04-22T21:16:44.746Z,11.10
2023-04-22T21:19:39.063Z,10.20
2023-04-22T21:22:32.783Z,9.80
2023-04-22T21:25:25.651Z,10.40
2023-04-22T21:28:18.591Z,9.50
2023-04-22T21:31:11.694Z,10.50
2023-04-22T21:34:06.442Z,9.90
2023-04-22T21:36:58.454Z,11.00
2023-04-22T21:39:50.473Z,10.40
2023-04-22T21:42:42.436Z,9.80
2023-04-22T21:45:34.474Z,10.30
2023-04-22T21:48:26.432Z,10.20
2023-04-22T21:51:18.591Z,12.20
2023-04-22T21:54:10.584Z,12.80
2023-04-22T21:57:02.594Z,14.90
2023-04-22T21:59:54.518Z,16.80
2023-04-22T22:02:47.308Z,16.20
2023-04-22T22:05:39.790Z,16.20
2023-04-22T22:08:31.750Z,15.20
2023-04-22T22:11:30.813Z,19.00
2023-04-22T22:14:23.517Z,16.80
2023-04-22T22:17:17.351Z,15.30
2023-04-22T22:20:13.146Z,15.90
2023-04-22T22:23:05.095Z,15.30
2023-04-22T22:25:57.047Z,14.00
2023-04-22T22:28:49.003Z,13.80
2023-04-22T22:31:41.378Z,13.00
2023-04-22T22:34:33.574Z,13.20
2023-04-22T22:37:25.672Z,13.60
2023-04-22T22:40:17.658Z,13.00
2023-04-22T22:43:09.620Z,11.80
2023-04-22T22:46:01.679Z,12.60
2023-04-22T22:48:54.571Z,12.50
2023-04-22T22:51:46.508Z,12.20
2023-04-22T22:54:40.337Z,12.30
2023-04-22T22:57:32.593Z,11.80
2023-04-22T23:00:24.617Z,12.60
2023-04-22T23:03:19.451Z,12.00
2023-04-22T23:06:12.046Z,12.20
2023-04-22T23:09:04.743Z,11.20
2023-04-22T23:11:56.749Z,11.90
2023-04-22T23:14:48.706Z,12.50
2023-04-22T23:17:40.857Z,13.00
2023-04-22T23:20:33.471Z,12.90
2023-04-22T23:23:25.979Z,13.30
2023-04-22T23:26:18.869Z,13.10
2023-04-22T23:29:11.233Z,13.30
2023-04-22T23:32:06.054Z,14.60
2023-04-22T23:35:00.974Z,15.50
2023-04-22T23:37:53.511Z,14.20
2023-04-22T23:40:45.613Z,15.40
2023-04-22T23:43:37.597Z,16.80
2023-04-22T23:46:29.718Z,16.20
2023-04-22T23:49:21.845Z,19.00
2023-04-22T23:52:14.042Z,18.50
2023-04-22T23:55:07.711Z,17.60
2023-04-22T23:58:00.410Z,17.70
